sensor_id;sensor_type;location;lat;lon;timestamp;temperature;humidity
1355;DHT22;671;48.972;9.276;2023-02-18T00:01:50;12.70;1.00
1355;DHT22;671;48.972;9.276;2023-02-18T00:04:16;12.70;1.00
1355;DHT22;671;48.972;9.276;2023-02-18T00:06:43;12.70;1.00
1355;DHT22;671;48.972;9.276;2023-02-18T00:09:10;12.80;1.00
1355;DHT22;671;48.972;9.276;2023-02-18T00:11:37;12.80;1.00
1355;DHT22;671;48.972;9.276;2023-02-18T00:14:07;12.80;1.00
1355;DHT22;671;48.972;9.276;2023-02-18T00:16:34;12.80;1.00
1355;DHT22;671;48.972;9.276;2023-02-18T00:19:02;12.80;1.00
1355;DHT22;671;48.972;9.276;2023-02-18T00:21:32;12.90;1.00
1355;DHT22;671;48.972;9.276;2023-02-18T00:23:59;12.90;1.00
1355;DHT22;671;48.972;9.276;2023-02-18T00:26:26;12.90;1.00
1355;DHT22;671;48.972;9.276;2023-02-18T00:28:53;12.90;1.00
1355;DHT22;671;48.972;9.276;2023-02-18T00:31:25;12.90;1.00
1355;DHT22;671;48.972;9.276;2023-02-18T00:33:52;12.90;1.00
1355;DHT22;671;48.972;9.276;2023-02-18T00:36:19;12.90;1.00
1355;DHT22;671;48.972;9.276;2023-02-18T00:38:55;13.00;1.00
1355;DHT22;671;48.972;9.276;2023-02-18T00:41:23;12.90;1.00
1355;DHT22;671;48.972;9.276;2023-02-18T00:43:50;13.00;1.00
1355;DHT22;671;48.972;9.276;2023-02-18T00:46:17;12.90;1.00
1355;DHT22;671;48.972;9.276;2023-02-18T00:48:43;12.90;1.00
1355;DHT22;671;48.972;9.276;2023-02-18T00:51:11;13.00;1.00
1355;DHT22;671;48.972;9.276;2023-02-18T00:53:38;13.00;1.00
1355;DHT22;671;48.972;9.276;2023-02-18T00:56:06;13.00;1.00
1355;DHT22;671;48.972;9.276;2023-02-18T00:58:33;12.90;1.00
1355;DHT22;671;48.972;9.276;2023-02-18T01:01:01;13.00;99.90
1355;DHT22;671;48.972;9.276;2023-02-18T01:03:28;13.00;1.00
1355;DHT22;671;48.972;9.276;2023-02-18T01:05:54;13.00;1.00
1355;DHT22;671;48.972;9.276;2023-02-18T01:08:21;13.00;1.00
1355;DHT22;671;48.972;9.276;2023-02-18T01:10:51;13.00;99.90
1355;DHT22;671;48.972;9.276;2023-02-18T01:13:18;13.00;99.90
1355;DHT22;671;48.972;9.276;2023-02-18T01:15:44;12.90;1.00
1355;DHT22;671;48.972;9.276;2023-02-18T01:18:12;12.90;99.90
1355;DHT22;671;48.972;9.276;2023-02-18T01:20:40;12.90;99.90
1355;DHT22;671;48.972;9.276;2023-02-18T01:23:07;12.90;99.90
1355;DHT22;671;48.972;9.276;2023-02-18T01:25:35;13.00;99.90
1355;DHT22;671;48.972;9.276;2023-02-18T01:28:03;13.00;99.90
1355;DHT22;671;48.972;9.276;2023-02-18T01:30:30;13.00;99.90
1355;DHT22;671;48.972;9.276;2023-02-18T01:32:57;13.00;99.90
1355;DHT22;671;48.972;9.276;2023-02-18T01:35:24;13.00;99.90
1355;DHT22;671;48.972;9.276;2023-02-18T01:37:51;13.00;99.90
1355;DHT22;671;48.972;9.276;2023-02-18T01:40:20;13.00;99.90
1355;DHT22;671;48.972;9.276;2023-02-18T01:42:48;13.00;99.90
1355;DHT22;671;48.972;9.276;2023-02-18T01:48:07;13.00;99.90
1355;DHT22;671;48.972;9.276;2023-02-18T01:50:38;13.00;99.90
1355;DHT22;671;48.972;9.276;2023-02-18T01:53:06;13.00;99.90
1355;DHT22;671;48.972;9.276;2023-02-18T01:55:34;13.00;99.90
1355;DHT22;671;48.972;9.276;2023-02-18T01:58:01;13.00;99.90
1355;DHT22;671;48.972;9.276;2023-02-18T02:00:28;13.00;99.90
1355;DHT22;671;48.972;9.276;2023-02-18T02:02:56;12.90;99.90
1355;DHT22;671;48.972;9.276;2023-02-18T02:05:22;12.90;99.90
1355;DHT22;671;48.972;9.276;2023-02-18T02:07:51;13.00;99.90
1355;DHT22;671;48.972;9.276;2023-02-18T02:10:19;13.00;99.90
1355;DHT22;671;48.972;9.276;2023-02-18T02:18:21;13.00;99.90
1355;DHT22;671;48.972;9.276;2023-02-18T02:21:31;12.90;99.90
1355;DHT22;671;48.972;9.276;2023-02-18T02:27:18;12.90;99.90
1355;DHT22;671;48.972;9.276;2023-02-18T02:33:13;12.90;99.90
1355;DHT22;671;48.972;9.276;2023-02-18T02:36:09;12.90;99.90
1355;DHT22;671;48.972;9.276;2023-02-18T02:41:44;12.90;99.90
1355;DHT22;671;48.972;9.276;2023-02-18T02:44:23;12.90;99.90
1355;DHT22;671;48.972;9.276;2023-02-18T02:46:59;12.90;99.90
1355;DHT22;671;48.972;9.276;2023-02-18T02:52:36;12.90;99.90
1355;DHT22;671;48.972;9.276;2023-02-18T02:55:11;12.80;99.90
1355;DHT22;671;48.972;9.276;2023-02-18T03:00:09;12.80;99.90
1355;DHT22;671;48.972;9.276;2023-02-18T03:13:50;12.80;99.90
1355;DHT22;671;48.972;9.276;2023-02-18T03:19:19;12.80;99.90
1355;DHT22;671;48.972;9.276;2023-02-18T03:24:56;12.80;99.90
1355;DHT22;671;48.972;9.276;2023-02-18T03:30:14;12.90;99.90
1355;DHT22;671;48.972;9.276;2023-02-18T03:32:41;12.80;99.90
1355;DHT22;671;48.972;9.276;2023-02-18T03:35:15;12.80;99.90
1355;DHT22;671;48.972;9.276;2023-02-18T03:37:47;12.90;99.90
1355;DHT22;671;48.972;9.276;2023-02-18T03:40:16;12.90;99.90
1355;DHT22;671;48.972;9.276;2023-02-18T03:42:42;12.90;99.90
1355;DHT22;671;48.972;9.276;2023-02-18T03:45:09;12.90;99.90
1355;DHT22;671;48.972;9.276;2023-02-18T03:47:36;12.80;99.90
1355;DHT22;671;48.972;9.276;2023-02-18T03:50:03;12.80;99.90
1355;DHT22;671;48.972;9.276;2023-02-18T03:52:30;12.80;99.90
1355;DHT22;671;48.972;9.276;2023-02-18T03:54:56;12.80;99.90
1355;DHT22;671;48.972;9.276;2023-02-18T03:57:23;12.70;99.90
1355;DHT22;671;48.972;9.276;2023-02-18T03:59:49;12.70;99.90
1355;DHT22;671;48.972;9.276;2023-02-18T04:02:16;12.60;1.00
1355;DHT22;671;48.972;9.276;2023-02-18T04:04:42;12.60;1.00
1355;DHT22;671;48.972;9.276;2023-02-18T04:07:08;12.60;1.00
1355;DHT22;671;48.972;9.276;2023-02-18T04:09:35;12.50;1.00
1355;DHT22;671;48.972;9.276;2023-02-18T04:12:01;12.40;1.00
1355;DHT22;671;48.972;9.276;2023-02-18T04:14:28;12.40;1.00
1355;DHT22;671;48.972;9.276;2023-02-18T04:16:54;12.40;1.00
1355;DHT22;671;48.972;9.276;2023-02-18T04:19:21;12.30;1.00
1355;DHT22;671;48.972;9.276;2023-02-18T04:21:47;12.30;1.00
1355;DHT22;671;48.972;9.276;2023-02-18T04:24:14;12.20;1.00
1355;DHT22;671;48.972;9.276;2023-02-18T04:26:40;12.10;1.00
1355;DHT22;671;48.972;9.276;2023-02-18T04:29:07;12.10;1.00
1355;DHT22;671;48.972;9.276;2023-02-18T04:31:33;12.10;1.00
1355;DHT22;671;48.972;9.276;2023-02-18T04:33:59;12.00;1.00
1355;DHT22;671;48.972;9.276;2023-02-18T04:36:26;12.00;1.00
1355;DHT22;671;48.972;9.276;2023-02-18T04:38:53;12.00;1.00
1355;DHT22;671;48.972;9.276;2023-02-18T04:41:19;12.00;1.00
1355;DHT22;671;48.972;9.276;2023-02-18T04:43:45;12.00;1.00
1355;DHT22;671;48.972;9.276;2023-02-18T04:46:12;12.00;1.00
1355;DHT22;671;48.972;9.276;2023-02-18T04:48:38;12.00;1.00
1355;DHT22;671;48.972;9.276;2023-02-18T04:51:05;12.00;1.00
1355;DHT22;671;48.972;9.276;2023-02-18T04:53:32;12.10;1.00
1355;DHT22;671;48.972;9.276;2023-02-18T04:55:59;12.10;1.00
1355;DHT22;671;48.972;9.276;2023-02-18T04:58:26;12.10;1.00
1355;DHT22;671;48.972;9.276;2023-02-18T05:00:52;12.20;1.00
1355;DHT22;671;48.972;9.276;2023-02-18T05:03:19;12.20;1.00
1355;DHT22;671;48.972;9.276;2023-02-18T05:05:45;12.20;1.00
1355;DHT22;671;48.972;9.276;2023-02-18T05:08:12;12.20;1.00
1355;DHT22;671;48.972;9.276;2023-02-18T05:10:38;12.20;1.00
1355;DHT22;671;48.972;9.276;2023-02-18T05:13:05;12.20;1.00
1355;DHT22;671;48.972;9.276;2023-02-18T05:15:31;12.30;1.00
1355;DHT22;671;48.972;9.276;2023-02-18T05:17:58;12.30;1.00
1355;DHT22;671;48.972;9.276;2023-02-18T05:20:24;12.30;1.00
1355;DHT22;671;48.972;9.276;2023-02-18T05:22:51;12.30;1.00
1355;DHT22;671;48.972;9.276;2023-02-18T05:25:17;12.30;1.00
1355;DHT22;671;48.972;9.276;2023-02-18T05:27:44;12.30;1.00
1355;DHT22;671;48.972;9.276;2023-02-18T05:30:10;12.20;1.00
1355;DHT22;671;48.972;9.276;2023-02-18T05:32:37;12.20;1.00
1355;DHT22;671;48.972;9.276;2023-02-18T05:35:04;12.20;1.00
1355;DHT22;671;48.972;9.276;2023-02-18T05:37:30;12.30;1.00
1355;DHT22;671;48.972;9.276;2023-02-18T05:39:57;12.30;1.00
1355;DHT22;671;48.972;9.276;2023-02-18T05:42:23;12.20;1.00
1355;DHT22;671;48.972;9.276;2023-02-18T05:44:50;12.20;1.00
1355;DHT22;671;48.972;9.276;2023-02-18T05:47:16;12.10;1.00
1355;DHT22;671;48.972;9.276;2023-02-18T05:49:43;12.10;1.00
1355;DHT22;671;48.972;9.276;2023-02-18T05:52:10;12.10;1.00
1355;DHT22;671;48.972;9.276;2023-02-18T05:54:38;12.00;1.00
1355;DHT22;671;48.972;9.276;2023-02-18T05:57:04;12.00;1.00
1355;DHT22;671;48.972;9.276;2023-02-18T05:59:31;12.00;1.00
1355;DHT22;671;48.972;9.276;2023-02-18T06:01:57;12.10;1.00
1355;DHT22;671;48.972;9.276;2023-02-18T06:04:24;12.10;1.00
1355;DHT22;671;48.972;9.276;2023-02-18T06:06:50;12.10;1.00
1355;DHT22;671;48.972;9.276;2023-02-18T06:09:17;12.10;1.00
1355;DHT22;671;48.972;9.276;2023-02-18T06:11:43;12.00;1.00
1355;DHT22;671;48.972;9.276;2023-02-18T06:14:10;12.00;1.00
1355;DHT22;671;48.972;9.276;2023-02-18T06:16:37;12.00;99.90
1355;DHT22;671;48.972;9.276;2023-02-18T06:19:03;12.00;99.90
1355;DHT22;671;48.972;9.276;2023-02-18T06:21:30;12.00;99.90
1355;DHT22;671;48.972;9.276;2023-02-18T06:23:56;12.00;99.90
1355;DHT22;671;48.972;9.276;2023-02-18T06:26:23;11.90;99.90
1355;DHT22;671;48.972;9.276;2023-02-18T06:28:49;11.90;99.90
1355;DHT22;671;48.972;9.276;2023-02-18T06:31:16;11.90;99.90
1355;DHT22;671;48.972;9.276;2023-02-18T06:33:42;11.90;99.90
1355;DHT22;671;48.972;9.276;2023-02-18T06:36:11;11.90;99.90
1355;DHT22;671;48.972;9.276;2023-02-18T06:38:39;11.90;99.90
1355;DHT22;671;48.972;9.276;2023-02-18T06:41:06;12.00;99.90
1355;DHT22;671;48.972;9.276;2023-02-18T06:43:33;11.90;99.90
1355;DHT22;671;48.972;9.276;2023-02-18T06:45:59;11.90;99.90
1355;DHT22;671;48.972;9.276;2023-02-18T06:48:26;12.00;99.90
1355;DHT22;671;48.972;9.276;2023-02-18T06:50:53;11.90;99.90
1355;DHT22;671;48.972;9.276;2023-02-18T06:53:20;11.90;99.90
1355;DHT22;671;48.972;9.276;2023-02-18T06:55:47;11.90;99.90
1355;DHT22;671;48.972;9.276;2023-02-18T06:58:13;11.90;99.90
1355;DHT22;671;48.972;9.276;2023-02-18T07:00:40;11.90;99.90
1355;DHT22;671;48.972;9.276;2023-02-18T07:03:07;11.90;99.90
1355;DHT22;671;48.972;9.276;2023-02-18T07:05:33;11.90;99.90
1355;DHT22;671;48.972;9.276;2023-02-18T07:08:00;11.90;99.90
1355;DHT22;671;48.972;9.276;2023-02-18T07:10:27;12.00;99.90
1355;DHT22;671;48.972;9.276;2023-02-18T07:12:53;12.00;99.90
1355;DHT22;671;48.972;9.276;2023-02-18T07:15:19;12.00;99.90
1355;DHT22;671;48.972;9.276;2023-02-18T07:17:50;12.00;99.90
1355;DHT22;671;48.972;9.276;2023-02-18T07:20:17;12.10;99.90
1355;DHT22;671;48.972;9.276;2023-02-18T07:22:44;12.10;99.90
1355;DHT22;671;48.972;9.276;2023-02-18T07:25:11;12.10;99.90
1355;DHT22;671;48.972;9.276;2023-02-18T07:27:37;12.10;99.90
1355;DHT22;671;48.972;9.276;2023-02-18T07:30:05;12.10;99.90
1355;DHT22;671;48.972;9.276;2023-02-18T07:32:31;12.10;99.90
1355;DHT22;671;48.972;9.276;2023-02-18T07:34:58;12.20;99.90
1355;DHT22;671;48.972;9.276;2023-02-18T07:37:24;12.20;99.90
1355;DHT22;671;48.972;9.276;2023-02-18T07:39:51;12.20;99.90
1355;DHT22;671;48.972;9.276;2023-02-18T07:42:17;12.30;99.90
1355;DHT22;671;48.972;9.276;2023-02-18T07:44:44;12.30;99.90
1355;DHT22;671;48.972;9.276;2023-02-18T07:47:14;12.40;99.90
1355;DHT22;671;48.972;9.276;2023-02-18T07:49:40;12.40;99.90
1355;DHT22;671;48.972;9.276;2023-02-18T07:52:07;12.50;99.90
1355;DHT22;671;48.972;9.276;2023-02-18T07:54:33;12.50;99.90
1355;DHT22;671;48.972;9.276;2023-02-18T07:57:00;12.50;99.90
1355;DHT22;671;48.972;9.276;2023-02-18T07:59:27;12.50;99.90
1355;DHT22;671;48.972;9.276;2023-02-18T08:01:53;12.50;99.90
1355;DHT22;671;48.972;9.276;2023-02-18T08:04:19;12.60;99.90
1355;DHT22;671;48.972;9.276;2023-02-18T08:06:48;12.60;99.90
1355;DHT22;671;48.972;9.276;2023-02-18T08:09:16;12.60;99.90
1355;DHT22;671;48.972;9.276;2023-02-18T08:11:43;12.60;99.90
1355;DHT22;671;48.972;9.276;2023-02-18T08:14:09;12.60;99.90
1355;DHT22;671;48.972;9.276;2023-02-18T08:16:36;12.60;99.90
1355;DHT22;671;48.972;9.276;2023-02-18T08:19:02;12.60;99.90
1355;DHT22;671;48.972;9.276;2023-02-18T08:21:29;12.70;99.90
1355;DHT22;671;48.972;9.276;2023-02-18T08:23:57;12.70;99.90
1355;DHT22;671;48.972;9.276;2023-02-18T08:26:24;12.70;97.70
1355;DHT22;671;48.972;9.276;2023-02-18T08:28:51;12.70;97.30
1355;DHT22;671;48.972;9.276;2023-02-18T08:31:24;12.80;97.40
1355;DHT22;671;48.972;9.276;2023-02-18T08:33:52;12.80;96.90
1355;DHT22;671;48.972;9.276;2023-02-18T08:36:19;12.90;97.00
1355;DHT22;671;48.972;9.276;2023-02-18T08:38:45;12.90;1.90
1355;DHT22;671;48.972;9.276;2023-02-18T08:41:12;13.00;1.50
1355;DHT22;671;48.972;9.276;2023-02-18T08:43:40;13.00;1.00
1355;DHT22;671;48.972;9.276;2023-02-18T08:46:06;13.10;1.00
1355;DHT22;671;48.972;9.276;2023-02-18T08:48:33;13.20;1.00
1355;DHT22;671;48.972;9.276;2023-02-18T08:51:07;13.30;1.00
1355;DHT22;671;48.972;9.276;2023-02-18T08:53:35;13.30;1.00
1355;DHT22;671;48.972;9.276;2023-02-18T08:56:05;13.30;1.00
1355;DHT22;671;48.972;9.276;2023-02-18T08:58:32;13.40;1.00
1355;DHT22;671;48.972;9.276;2023-02-18T09:01:04;13.50;1.00
1355;DHT22;671;48.972;9.276;2023-02-18T09:03:31;13.60;1.00
1355;DHT22;671;48.972;9.276;2023-02-18T09:05:58;13.70;99.90
1355;DHT22;671;48.972;9.276;2023-02-18T09:08:24;13.70;1.00
1355;DHT22;671;48.972;9.276;2023-02-18T09:10:56;13.80;99.90
1355;DHT22;671;48.972;9.276;2023-02-18T09:13:23;13.90;1.00
1355;DHT22;671;48.972;9.276;2023-02-18T09:16:04;13.90;99.90
1355;DHT22;671;48.972;9.276;2023-02-18T09:18:32;14.00;99.90
1355;DHT22;671;48.972;9.276;2023-02-18T09:21:00;14.00;1.00
1355;DHT22;671;48.972;9.276;2023-02-18T09:23:29;14.10;1.00
1355;DHT22;671;48.972;9.276;2023-02-18T09:25:57;14.10;1.00
1355;DHT22;671;48.972;9.276;2023-02-18T09:28:23;14.20;99.90
1355;DHT22;671;48.972;9.276;2023-02-18T09:30:50;14.40;1.00
1355;DHT22;671;48.972;9.276;2023-02-18T09:33:17;14.40;1.00
1355;DHT22;671;48.972;9.276;2023-02-18T09:35:45;14.40;1.00
1355;DHT22;671;48.972;9.276;2023-02-18T09:38:14;14.40;1.00
1355;DHT22;671;48.972;9.276;2023-02-18T09:40:43;14.50;1.00
1355;DHT22;671;48.972;9.276;2023-02-18T09:43:28;14.60;1.00
1355;DHT22;671;48.972;9.276;2023-02-18T09:45:55;14.70;1.00
1355;DHT22;671;48.972;9.276;2023-02-18T09:48:28;14.70;1.00
1355;DHT22;671;48.972;9.276;2023-02-18T09:50:56;14.80;1.00
1355;DHT22;671;48.972;9.276;2023-02-18T09:53:24;14.80;1.00
1355;DHT22;671;48.972;9.276;2023-02-18T09:55:52;14.70;1.00
1355;DHT22;671;48.972;9.276;2023-02-18T09:58:24;14.90;1.00
1355;DHT22;671;48.972;9.276;2023-02-18T10:01:11;14.80;1.00
1355;DHT22;671;48.972;9.276;2023-02-18T10:03:39;14.90;1.00
1355;DHT22;671;48.972;9.276;2023-02-18T10:06:15;14.90;1.00
1355;DHT22;671;48.972;9.276;2023-02-18T10:08:45;14.90;1.00
1355;DHT22;671;48.972;9.276;2023-02-18T10:11:22;14.90;1.00
1355;DHT22;671;48.972;9.276;2023-02-18T10:13:49;14.90;1.00
1355;DHT22;671;48.972;9.276;2023-02-18T10:16:19;14.80;1.00
1355;DHT22;671;48.972;9.276;2023-02-18T10:18:54;14.80;99.90
1355;DHT22;671;48.972;9.276;2023-02-18T10:21:28;14.80;99.90
1355;DHT22;671;48.972;9.276;2023-02-18T10:24:00;14.70;99.90
1355;DHT22;671;48.972;9.276;2023-02-18T10:26:30;14.70;99.90
1355;DHT22;671;48.972;9.276;2023-02-18T10:28:59;14.70;99.90
1355;DHT22;671;48.972;9.276;2023-02-18T10:31:35;14.60;99.90
1355;DHT22;671;48.972;9.276;2023-02-18T10:36:44;14.60;99.90
1355;DHT22;671;48.972;9.276;2023-02-18T10:41:53;14.70;99.90
1355;DHT22;671;48.972;9.276;2023-02-18T10:46:59;14.80;99.90
1355;DHT22;671;48.972;9.276;2023-02-18T10:51:55;14.80;99.90
1355;DHT22;671;48.972;9.276;2023-02-18T10:54:24;14.80;99.90
1355;DHT22;671;48.972;9.276;2023-02-18T10:56:53;14.80;99.90
1355;DHT22;671;48.972;9.276;2023-02-18T10:59:31;14.80;99.50
1355;DHT22;671;48.972;9.276;2023-02-18T11:02:22;14.80;99.90
1355;DHT22;671;48.972;9.276;2023-02-18T11:04:49;14.70;99.90
1355;DHT22;671;48.972;9.276;2023-02-18T11:07:22;14.80;99.90
1355;DHT22;671;48.972;9.276;2023-02-18T11:09:53;14.80;99.90
1355;DHT22;671;48.972;9.276;2023-02-18T11:12:23;14.90;99.90
1355;DHT22;671;48.972;9.276;2023-02-18T11:17:47;14.90;99.90
1355;DHT22;671;48.972;9.276;2023-02-18T11:20:35;14.90;99.90
1355;DHT22;671;48.972;9.276;2023-02-18T11:25:33;15.00;99.90
1355;DHT22;671;48.972;9.276;2023-02-18T11:28:06;14.90;99.90
1355;DHT22;671;48.972;9.276;2023-02-18T11:30:54;14.90;1.00
1355;DHT22;671;48.972;9.276;2023-02-18T11:33:23;14.90;1.00
1355;DHT22;671;48.972;9.276;2023-02-18T11:35:57;14.90;1.00
1355;DHT22;671;48.972;9.276;2023-02-18T11:38:37;14.80;1.00
1355;DHT22;671;48.972;9.276;2023-02-18T11:41:09;14.80;1.00
1355;DHT22;671;48.972;9.276;2023-02-18T11:43:40;14.80;1.00
1355;DHT22;671;48.972;9.276;2023-02-18T11:46:16;14.80;40.00
1355;DHT22;671;48.972;9.276;2023-02-18T11:48:44;14.70;1.00
1355;DHT22;671;48.972;9.276;2023-02-18T11:51:33;14.70;77.10
1355;DHT22;671;48.972;9.276;2023-02-18T11:54:23;14.70;99.90
1355;DHT22;671;48.972;9.276;2023-02-18T11:59:22;14.70;99.90
1355;DHT22;671;48.972;9.276;2023-02-18T12:02:05;14.70;99.90
1355;DHT22;671;48.972;9.276;2023-02-18T12:04:47;14.70;99.90
1355;DHT22;671;48.972;9.276;2023-02-18T12:07:26;14.70;99.90
1355;DHT22;671;48.972;9.276;2023-02-18T12:09:58;14.70;99.90
1355;DHT22;671;48.972;9.276;2023-02-18T12:12:29;14.70;99.90
1355;DHT22;671;48.972;9.276;2023-02-18T12:14:56;14.70;99.90
1355;DHT22;671;48.972;9.276;2023-02-18T12:23:42;14.70;99.90
1355;DHT22;671;48.972;9.276;2023-02-18T12:26:25;14.70;99.90
1355;DHT22;671;48.972;9.276;2023-02-18T13:10:40;15.00;1.00
1355;DHT22;671;48.972;9.276;2023-02-18T13:16:02;14.90;1.00
1355;DHT22;671;48.972;9.276;2023-02-18T13:18:39;14.90;1.00
1355;DHT22;671;48.972;9.276;2023-02-18T13:21:12;14.90;1.00
1355;DHT22;671;48.972;9.276;2023-02-18T13:23:54;14.80;1.00
1355;DHT22;671;48.972;9.276;2023-02-18T13:26:22;14.80;1.00
1355;DHT22;671;48.972;9.276;2023-02-18T13:31:38;14.80;99.90
1355;DHT22;671;48.972;9.276;2023-02-18T13:36:59;14.70;99.90
1355;DHT22;671;48.972;9.276;2023-02-18T13:39:27;14.70;75.70
1355;DHT22;671;48.972;9.276;2023-02-18T13:47:43;14.80;90.00
1355;DHT22;671;48.972;9.276;2023-02-18T13:52:59;14.70;32.00
1355;DHT22;671;48.972;9.276;2023-02-18T13:55:41;14.70;1.00
1355;DHT22;671;48.972;9.276;2023-02-18T13:58:18;14.70;70.80
1355;DHT22;671;48.972;9.276;2023-02-18T14:01:10;14.60;94.50
1355;DHT22;671;48.972;9.276;2023-02-18T14:08:43;14.50;99.90
1355;DHT22;671;48.972;9.276;2023-02-18T14:16:07;14.60;99.90
1355;DHT22;671;48.972;9.276;2023-02-18T14:18:58;14.60;99.90
1355;DHT22;671;48.972;9.276;2023-02-18T14:21:40;14.60;99.90
1355;DHT22;671;48.972;9.276;2023-02-18T14:24:09;14.70;99.90
1355;DHT22;671;48.972;9.276;2023-02-18T14:26:44;14.70;99.90
1355;DHT22;671;48.972;9.276;2023-02-18T14:29:23;14.70;1.00
1355;DHT22;671;48.972;9.276;2023-02-18T14:31:55;14.70;1.00
1355;DHT22;671;48.972;9.276;2023-02-18T14:34:51;14.70;1.00
1355;DHT22;671;48.972;9.276;2023-02-18T14:37:34;14.70;1.00
1355;DHT22;671;48.972;9.276;2023-02-18T14:40:15;14.70;1.00
1355;DHT22;671;48.972;9.276;2023-02-18T14:42:54;14.70;1.00
1355;DHT22;671;48.972;9.276;2023-02-18T14:48:36;14.70;1.00
1355;DHT22;671;48.972;9.276;2023-02-18T14:51:07;14.70;1.00
1355;DHT22;671;48.972;9.276;2023-02-18T14:53:40;14.70;1.00
1355;DHT22;671;48.972;9.276;2023-02-18T14:56:09;14.60;1.00
1355;DHT22;671;48.972;9.276;2023-02-18T14:58:40;14.60;1.00
1355;DHT22;671;48.972;9.276;2023-02-18T15:01:34;14.60;1.00
1355;DHT22;671;48.972;9.276;2023-02-18T15:04:02;14.60;1.00
1355;DHT22;671;48.972;9.276;2023-02-18T15:06:36;14.60;1.00
1355;DHT22;671;48.972;9.276;2023-02-18T15:09:13;14.60;1.00
1355;DHT22;671;48.972;9.276;2023-02-18T15:12:06;14.60;1.00
1355;DHT22;671;48.972;9.276;2023-02-18T15:14:37;14.50;1.00
1355;DHT22;671;48.972;9.276;2023-02-18T15:17:07;14.50;1.00
1355;DHT22;671;48.972;9.276;2023-02-18T15:19:43;14.60;1.00
1355;DHT22;671;48.972;9.276;2023-02-18T15:22:18;14.50;1.00
1355;DHT22;671;48.972;9.276;2023-02-18T15:24:46;14.50;1.00
1355;DHT22;671;48.972;9.276;2023-02-18T15:29:41;14.50;1.00
1355;DHT22;671;48.972;9.276;2023-02-18T15:34:42;14.40;1.00
1355;DHT22;671;48.972;9.276;2023-02-18T15:37:11;14.40;1.00
1355;DHT22;671;48.972;9.276;2023-02-18T15:39:39;14.40;99.90
1355;DHT22;671;48.972;9.276;2023-02-18T15:42:08;14.40;1.00
1355;DHT22;671;48.972;9.276;2023-02-18T15:44:36;14.40;1.00
1355;DHT22;671;48.972;9.276;2023-02-18T15:47:07;14.40;99.90
1355;DHT22;671;48.972;9.276;2023-02-18T15:49:37;14.40;99.90
1355;DHT22;671;48.972;9.276;2023-02-18T15:52:04;14.30;99.90
1355;DHT22;671;48.972;9.276;2023-02-18T15:54:31;14.30;99.90
1355;DHT22;671;48.972;9.276;2023-02-18T15:57:00;14.30;99.90
1355;DHT22;671;48.972;9.276;2023-02-18T15:59:32;14.20;99.90
1355;DHT22;671;48.972;9.276;2023-02-18T16:02:18;14.20;99.90
1355;DHT22;671;48.972;9.276;2023-02-18T16:04:51;14.20;99.90
1355;DHT22;671;48.972;9.276;2023-02-18T16:09:45;14.00;99.90
1355;DHT22;671;48.972;9.276;2023-02-18T16:12:26;14.00;99.90
1355;DHT22;671;48.972;9.276;2023-02-18T16:14:55;14.00;1.00
1355;DHT22;671;48.972;9.276;2023-02-18T16:17:25;13.90;1.00
1355;DHT22;671;48.972;9.276;2023-02-18T16:19:53;13.90;1.00
1355;DHT22;671;48.972;9.276;2023-02-18T16:22:31;13.90;1.00
1355;DHT22;671;48.972;9.276;2023-02-18T16:25:26;13.80;1.00
1355;DHT22;671;48.972;9.276;2023-02-18T16:28:01;13.80;1.00
1355;DHT22;671;48.972;9.276;2023-02-18T16:30:31;13.80;1.00
1355;DHT22;671;48.972;9.276;2023-02-18T16:32:58;13.70;1.00
1355;DHT22;671;48.972;9.276;2023-02-18T16:35:28;13.70;1.00
1355;DHT22;671;48.972;9.276;2023-02-18T16:37:55;13.70;1.00
1355;DHT22;671;48.972;9.276;2023-02-18T16:40:36;13.60;1.00
1355;DHT22;671;48.972;9.276;2023-02-18T16:43:10;13.70;1.00
1355;DHT22;671;48.972;9.276;2023-02-18T16:45:40;13.60;1.00
1355;DHT22;671;48.972;9.276;2023-02-18T16:48:20;13.50;1.00
1355;DHT22;671;48.972;9.276;2023-02-18T16:50:49;13.50;1.00
1355;DHT22;671;48.972;9.276;2023-02-18T16:53:17;13.50;1.00
1355;DHT22;671;48.972;9.276;2023-02-18T16:55:43;13.50;1.00
1355;DHT22;671;48.972;9.276;2023-02-18T16:58:10;13.40;1.00
1355;DHT22;671;48.972;9.276;2023-02-18T17:00:36;13.40;85.00
1355;DHT22;671;48.972;9.276;2023-02-18T17:03:04;13.40;99.90
1355;DHT22;671;48.972;9.276;2023-02-18T17:05:32;13.30;99.90
1355;DHT22;671;48.972;9.276;2023-02-18T17:08:25;13.30;99.90
1355;DHT22;671;48.972;9.276;2023-02-18T17:10:54;13.30;99.90
1355;DHT22;671;48.972;9.276;2023-02-18T17:13:27;13.30;99.90
1355;DHT22;671;48.972;9.276;2023-02-18T17:15:55;13.30;99.90
1355;DHT22;671;48.972;9.276;2023-02-18T17:18:22;13.20;99.90
1355;DHT22;671;48.972;9.276;2023-02-18T17:20:50;13.20;1.00
1355;DHT22;671;48.972;9.276;2023-02-18T17:23:19;13.20;1.00
1355;DHT22;671;48.972;9.276;2023-02-18T17:25:47;13.20;1.00
1355;DHT22;671;48.972;9.276;2023-02-18T17:28:15;13.20;1.00
1355;DHT22;671;48.972;9.276;2023-02-18T17:30:51;13.20;1.00
1355;DHT22;671;48.972;9.276;2023-02-18T17:33:18;13.20;1.00
1355;DHT22;671;48.972;9.276;2023-02-18T17:35:48;13.20;1.00
1355;DHT22;671;48.972;9.276;2023-02-18T17:38:16;13.20;1.00
1355;DHT22;671;48.972;9.276;2023-02-18T17:40:44;13.20;1.00
1355;DHT22;671;48.972;9.276;2023-02-18T17:43:15;13.10;1.00
1355;DHT22;671;48.972;9.276;2023-02-18T17:45:50;13.10;1.00
1355;DHT22;671;48.972;9.276;2023-02-18T17:48:17;13.10;1.00
1355;DHT22;671;48.972;9.276;2023-02-18T17:50:44;13.10;1.00
1355;DHT22;671;48.972;9.276;2023-02-18T17:53:12;13.00;1.00
1355;DHT22;671;48.972;9.276;2023-02-18T17:55:39;13.00;1.00
1355;DHT22;671;48.972;9.276;2023-02-18T17:58:06;13.10;71.00
1355;DHT22;671;48.972;9.276;2023-02-18T18:00:35;13.00;1.00
1355;DHT22;671;48.972;9.276;2023-02-18T18:03:03;13.10;1.00
1355;DHT22;671;48.972;9.276;2023-02-18T18:05:31;13.10;58.20
1355;DHT22;671;48.972;9.276;2023-02-18T18:08:00;13.10;52.50
1355;DHT22;671;48.972;9.276;2023-02-18T18:10:30;13.10;99.90
1355;DHT22;671;48.972;9.276;2023-02-18T18:12:59;13.00;99.90
1355;DHT22;671;48.972;9.276;2023-02-18T18:17:57;12.90;1.00
1355;DHT22;671;48.972;9.276;2023-02-18T18:20:25;12.90;1.00
1355;DHT22;671;48.972;9.276;2023-02-18T18:22:54;12.80;99.90
1355;DHT22;671;48.972;9.276;2023-02-18T18:27:52;12.80;1.00
1355;DHT22;671;48.972;9.276;2023-02-18T18:30:24;12.70;1.00
1355;DHT22;671;48.972;9.276;2023-02-18T18:32:51;12.60;1.00
1355;DHT22;671;48.972;9.276;2023-02-18T18:35:29;12.60;99.90
1355;DHT22;671;48.972;9.276;2023-02-18T18:37:57;12.50;1.00
1355;DHT22;671;48.972;9.276;2023-02-18T18:40:26;12.50;1.40
1355;DHT22;671;48.972;9.276;2023-02-18T18:42:54;12.40;97.00
1355;DHT22;671;48.972;9.276;2023-02-18T18:45:24;12.40;99.90
1355;DHT22;671;48.972;9.276;2023-02-18T18:47:51;12.30;99.90
1355;DHT22;671;48.972;9.276;2023-02-18T18:50:19;12.20;1.00
1355;DHT22;671;48.972;9.276;2023-02-18T18:52:46;12.10;1.00
1355;DHT22;671;48.972;9.276;2023-02-18T18:55:34;12.00;1.00
1355;DHT22;671;48.972;9.276;2023-02-18T18:58:01;11.90;1.00
1355;DHT22;671;48.972;9.276;2023-02-18T19:00:34;11.80;1.00
1355;DHT22;671;48.972;9.276;2023-02-18T19:03:02;11.80;1.00
1355;DHT22;671;48.972;9.276;2023-02-18T19:05:34;11.70;1.00
1355;DHT22;671;48.972;9.276;2023-02-18T19:08:03;11.60;1.00
1355;DHT22;671;48.972;9.276;2023-02-18T19:10:35;11.60;1.00
1355;DHT22;671;48.972;9.276;2023-02-18T19:15:36;11.50;1.00
1355;DHT22;671;48.972;9.276;2023-02-18T19:18:03;11.50;1.00
1355;DHT22;671;48.972;9.276;2023-02-18T19:20:31;11.50;1.00